• Join FlightAware (Why Join?)
  • Login
  • US Flag 
03:42PM EDT


 

Airport Tracker/Info


-or-


 

Live Flight TrackerFlight Track Log ✈ N591CA ✈ 20-May-2013 ✈ KCGF - D95

Flight Track Log - Related Links

Times and Time Zones

All times are in EDT time to prevent confusion due to time zone crossing. See the N591CA flight status page for this flight to view local times or setup timezone preferences in your user account.

Time Position Orientation Groundspeed Altitude Reporting Facility
EDT Latitude Longitude Course Direction KTS MPH feet Rate Location/Type
09:03AM 41.5603 -81.4961 307° West 70 81 1,300  Level Cleveland Center
09:04AM 41.5747 -81.5214 307° West 101 116 2,100 720 Climbing Cleveland Center
09:05AM 41.5869 -81.5519 298° West 100 115 2,900 720 Climbing Cleveland Center
09:06AM 41.5950 -81.5828 289° West 98 113 3,600 540 Climbing Cleveland Center
09:07AM 41.6031 -81.6217 285° West 104 120 4,000 180 Climbing Cleveland Center
09:08AM 41.6172 -81.6692 292° West 148 170 4,000  Level Cleveland Center
09:09AM 41.6292 -81.7194 288° West 143 165 4,000 420 Level Cleveland Center
09:11AM 41.6369 -81.7639 283° West 89 102 5,000 780 Climbing Cleveland Center
09:12AM 41.6469 -81.8003 290° West 98 113 5,700 660 Climbing Cleveland Center
09:12AM 41.6550 -81.8281 291° West 95 109 6,300 660 Climbing Cleveland Center
09:13AM 41.6631 -81.8644 287° West 97 112 7,000 600 Climbing Cleveland Center
09:15AM 41.6708 -81.9008 286° West 97 112 7,600 480 Climbing Cleveland Center
09:15AM 41.6769 -81.9314 285° West 95 109 8,000 180 Climbing Cleveland Center
09:17AM 41.6889 -81.9761 290° West 137 158 8,000  Level Cleveland Center
09:18AM 41.6986 -82.0181 287° West 124 143 8,100  Climbing Cleveland Center
09:19AM 41.7106 -82.0656 289° West 123 142 8,100  Level Cleveland Center
09:20AM 41.7206 -82.1131 286° West 129 148 8,100  Level Cleveland Center
09:21AM 41.7303 -82.1581 286° West 122 140 8,100  Level Cleveland Center
09:22AM 41.7422 -82.2056 289° West 117 135 8,100  Level Cleveland Center
09:23AM 41.7539 -82.2503 289° West 120 138 8,100  Level Cleveland Center
09:24AM 41.7636 -82.2953 286° West 123 142 8,100  Level Cleveland Center
09:25AM 41.7717 -82.3261 289° West 124 143 8,100  Level Cleveland Center
09:26AM 41.7833 -82.3792 286° West 123 142 8,100 -60 Level Cleveland Center
09:26AM 41.7933 -82.4075 295° West 123 142 8,000 -60 Descending Cleveland Center
09:28AM 41.8089 -82.4692 289° West 127 146 8,000  Level Cleveland Center
09:29AM 41.8186 -82.5167 285° West 123 142 8,000  Level Cleveland Center
09:30AM 41.8281 -82.5644 285° West 121 139 8,000  Level Cleveland Center
09:31AM 41.8400 -82.6067 291° West 120 138 8,000  Level Cleveland Center
09:32AM 41.8644 -82.6381 316° Northwest 142 163 8,000 -120 Level Cleveland Center
09:33AM 41.9017 -82.6533 343° North 143 165 7,800 -420 Descending Cleveland Center
09:34AM 41.9408 -82.6769 336° Northwest 153 176 7,200 -720 Descending Cleveland Center
09:35AM 41.9758 -82.6975 336° Northwest 150 173 6,500 -780 Descending Cleveland Center
09:36AM 42.0106 -82.7350 321° Northwest 142 163 5,700 -780 Descending Cleveland Center
09:37AM 42.0372 -82.7556 330° Northwest 145 167 5,100 -420 Descending Cleveland Center
09:38AM 42.0789 -82.7681 347° North 154 177 5,000 -60 Descending Cleveland Center
09:39AM 42.1203 -82.7750 353° North 146 168 5,000  Level Cleveland Center
09:40AM 42.1639 -82.7822 353° North 145 167 5,000  Level Cleveland Center
09:41AM 42.2033 -82.7975 344° North 145 167 5,000  Level Cleveland Center
09:42AM 42.2364 -82.8100 344° North 140 161 5,000 -180 Level Cleveland Center
09:43AM 42.2797 -82.8367 336° Northwest 159 183 4,700 -480 Descending Cleveland Center
09:44AM 42.3189 -82.8578 338° Northwest 161 185 4,000 -360 Descending Cleveland Center
09:45AM 42.3622 -82.8819 338° Northwest 141 162 4,000  Level Cleveland Center
09:46AM 42.4033 -82.9031 339° North 143 165 4,000  Level Cleveland Center
09:47AM 42.4425 -82.9242 338° Northwest 144 166 4,000  Level Cleveland Center
09:48AM 42.4736 -82.9422 337° Northwest 142 163 4,000  Level Cleveland Center
09:49AM 42.5106 -82.9606 340° North 142 163 4,000  Level Cleveland Center
09:50AM 42.5478 -82.9817 337° Northwest 142 163 4,000  Level Cleveland Center
09:51AM 42.5808 -82.9997 338° Northwest 138 159 4,000  Level Cleveland Center
09:52AM 42.6136 -83.0208 335° Northwest 142 163 4,000  Level Cleveland Center
09:54AM 42.6675 -83.0483 339° North  Level FlightAware Approximate
10:01AM 42.9123 -83.1754 332° Northwest  Level FlightAware Approximate
10:02AM 42.9459 -83.1994 332° Northwest  Level FlightAware Approximate
10:03AM 42.9796 -83.2235 332° Northwest  Level FlightAware Approximate
10:04AM 43.0132 -83.2475 332° Northwest  Level FlightAware Approximate
10:05AM 43.0486 -83.2660 340° North  Level FlightAware Approximate
10:06AM 43.0500 -83.2667 340° North  Level FlightAware Approximate
10:07AM 43.0665 -83.2715 340° North  Level Estimated